Time;durP1;ratioP1;P1;durP2;ratioP2;P2;SDS_P1;SDS_P2;PMS_P1;PMS_P2;Temp;Humidity;BMP_temperature;BMP_pressure;BME280_temperature;BME280_humidity;BME280_pressure;Samples;Min_cycle;Max_cycle;Signal;HPM_P1;HPM_P2
2021/05/03 00:00:08;;;;;;;3.70;3.40;;;;;;;3.63;70.66;96915.63;5072519;28;20051;-78
2021/05/03 00:02:35;;;;;;;4.85;4.18;;;;;;;3.61;70.63;96907.19;5073987;28;20491;-78
2021/05/03 00:05:04;;;;;;;4.30;4.00;;;;;;;3.55;70.91;96908.66;5072773;28;20477;-77
2021/05/03 00:07:30;;;;;;;3.90;3.60;;;;;;;3.50;70.73;96910.13;5073813;28;20044;-77
2021/05/03 00:09:56;;;;;;;4.07;3.67;;;;;;;3.43;70.88;96915.13;5073866;28;20041;-78
2021/05/03 00:12:22;;;;;;;3.83;3.53;;;;;;;3.36;70.96;96916.72;5055683;28;20087;-78
2021/05/03 00:14:50;;;;;;;4.00;3.75;;;;;;;3.32;70.90;96918.03;5073750;28;20477;-76
2021/05/03 00:17:17;;;;;;;3.97;3.63;;;;;;;3.28;71.09;96914.97;5072526;28;20040;-77
2021/05/03 00:19:43;;;;;;;3.90;3.60;;;;;;;3.25;71.32;96910.91;5072402;28;20040;-78
2021/05/03 00:22:10;;;;;;;4.40;4.00;;;;;;;3.21;71.46;96922.56;5072373;28;20032;-77
2021/05/03 00:24:36;;;;;;;4.60;4.20;;;;;;;3.19;71.45;96921.94;5073814;28;20028;-76
2021/05/03 00:27:03;;;;;;;4.47;4.18;;;;;;;3.18;71.53;96914.31;5072388;28;20044;-76
2021/05/03 00:29:29;;;;;;;4.75;4.35;;;;;;;3.15;71.61;96922.38;5072293;28;20056;-77
2021/05/03 00:31:56;;;;;;;4.50;4.20;;;;;;;3.11;71.62;96915.88;5072242;28;20033;-76
2021/05/03 00:34:22;;;;;;;4.22;3.85;;;;;;;3.11;71.66;96918.47;5071944;28;20401;-77
2021/05/03 00:36:48;;;;;;;4.55;4.25;;;;;;;3.10;71.69;96920.25;5073268;28;20043;-77
2021/05/03 00:39:14;;;;;;;4.15;3.83;;;;;;;3.09;71.69;96921.25;5071480;28;20044;-76
2021/05/03 00:41:41;;;;;;;4.25;3.85;;;;;;;3.09;71.89;96926.44;5073259;28;20036;-78
2021/05/03 00:44:07;;;;;;;4.80;4.43;;;;;;;3.08;71.93;96918.81;5073042;28;20053;-77
2021/05/03 00:46:33;;;;;;;4.22;3.83;;;;;;;3.08;72.21;96924.00;5071574;28;20048;-77
2021/05/03 00:49:00;;;;;;;4.95;4.55;;;;;;;3.09;72.35;96916.06;5073402;28;20051;-77
2021/05/03 00:51:26;;;;;;;4.82;4.30;;;;;;;3.10;72.20;96922.84;5072861;28;20036;-77
2021/05/03 00:53:52;;;;;;;4.80;4.40;;;;;;;3.12;72.28;96923.50;5073605;28;20037;-77
2021/05/03 00:56:18;;;;;;;4.80;4.40;;;;;;;3.12;72.34;96927.88;5055113;28;20032;-77
2021/05/03 00:58:45;;;;;;;4.93;4.53;;;;;;;3.11;72.37;96929.69;5072039;28;20520;-78
2021/05/03 01:01:11;;;;;;;4.97;4.57;;;;;;;3.10;72.39;96927.25;5071588;28;20052;-78
2021/05/03 01:03:38;;;;;;;4.47;4.18;;;;;;;3.07;72.35;96925.78;5071239;28;20040;-77
2021/05/03 01:06:04;;;;;;;5.03;4.63;;;;;;;3.04;72.28;96928.66;5071997;28;20051;-78
2021/05/03 01:08:30;;;;;;;4.38;4.07;;;;;;;3.01;72.34;96931.59;5073070;28;20457;-78
2021/05/03 01:10:57;;;;;;;4.70;4.40;;;;;;;2.98;72.31;96935.31;5071674;28;20040;-78
2021/05/03 01:13:23;;;;;;;4.45;4.05;;;;;;;2.95;72.60;96932.22;5071918;28;20047;-78
2021/05/03 01:15:49;;;;;;;4.82;4.53;;;;;;;2.92;72.49;96932.53;5070150;28;20043;-77
2021/05/03 01:18:15;;;;;;;4.60;4.28;;;;;;;2.91;72.58;96934.31;5064268;28;20041;-77
2021/05/03 01:20:42;;;;;;;5.20;4.70;;;;;;;2.87;72.87;96938.19;5066935;28;20481;-78
2021/05/03 01:23:08;;;;;;;5.90;5.47;;;;;;;2.87;73.16;96945.16;5072108;28;20040;-78
2021/05/03 01:25:39;;;;;;;5.97;5.47;;;;;;;2.85;73.34;96940.13;5073431;28;20036;-78
2021/05/03 01:28:06;;;;;;;5.80;5.35;;;;;;;2.83;73.18;96935.13;5064402;28;20048;-78
2021/05/03 01:30:35;;;;;;;6.30;5.80;;;;;;;2.83;73.34;96942.06;5071199;28;20044;-79
2021/05/03 01:33:04;;;;;;;6.25;5.75;;;;;;;2.83;73.42;96939.47;5072345;28;20056;-79
2021/05/03 01:35:31;;;;;;;6.22;5.72;;;;;;;2.83;73.59;96939.47;5066129;28;20033;-77
2021/05/03 01:37:59;;;;;;;6.60;6.10;;;;;;;2.83;73.43;96944.63;5073259;28;20400;-77
2021/05/03 01:40:29;;;;;;;6.00;5.47;;;;;;;2.82;73.46;96951.59;5072594;28;20037;-78
2021/05/03 01:42:56;;;;;;;6.88;6.32;;;;;;;2.78;73.47;96942.53;5071661;28;20499;-77
2021/05/03 01:45:25;;;;;;;6.80;6.20;;;;;;;2.76;73.52;96947.03;5073093;28;20032;-77
2021/05/03 01:47:54;;;;;;;6.20;5.70;;;;;;;2.72;73.61;96952.69;5068291;28;20048;-77
2021/05/03 01:50:22;;;;;;;7.20;6.50;;;;;;;2.70;73.75;96946.88;5072682;28;20028;-77
2021/05/03 01:52:50;;;;;;;6.50;6.00;;;;;;;2.69;73.74;96945.22;5072574;28;20032;-76
2021/05/03 01:55:24;;;;;;;7.07;6.47;;;;;;;2.67;74.02;96945.41;5064386;28;20049;-78
2021/05/03 01:57:50;;;;;;;7.50;6.90;;;;;;;2.66;73.96;96946.34;5073239;28;20044;-77
2021/05/03 02:00:17;;;;;;;7.32;6.72;;;;;;;2.68;74.11;96941.03;5058535;28;20047;-78
2021/05/03 02:02:47;;;;;;;7.13;6.53;;;;;;;2.66;74.46;96943.75;5074716;28;20061;-77
2021/05/03 02:05:20;;;;;;;7.70;7.10;;;;;;;2.63;74.56;96944.91;5076054;28;20051;-77
2021/05/03 02:07:56;;;;;;;7.78;7.10;;;;;;;2.60;74.69;96945.22;5075809;28;20063;-77
2021/05/03 02:10:23;;;;;;;6.97;6.38;;;;;;;2.57;74.28;96945.50;5075860;28;20098;-77
2021/05/03 02:12:49;;;;;;;6.78;6.28;;;;;;;2.56;74.25;96948.25;5067155;28;20035;-79
2021/05/03 02:15:16;;;;;;;6.75;6.15;;;;;;;2.56;74.35;96948.25;5075301;28;20043;-79
2021/05/03 02:17:42;;;;;;;7.45;6.85;;;;;;;2.56;74.44;96951.69;5062629;28;20064;-78
2021/05/03 02:20:09;;;;;;;8.55;7.70;;;;;;;2.57;74.68;96955.06;5075445;28;20476;-77
2021/05/03 02:22:35;;;;;;;7.65;6.95;;;;;;;2.58;74.82;96948.91;5075629;28;20048;-76
2021/05/03 02:25:01;;;;;;;7.32;6.72;;;;;;;2.57;74.81;96939.53;5074793;28;20048;-79
2021/05/03 02:27:28;;;;;;;7.60;6.90;;;;;;;2.58;74.60;96941.97;5074862;28;20048;-80
2021/05/03 02:29:55;;;;;;;8.13;7.43;;;;;;;2.56;74.50;96946.50;5075674;28;20051;-79
2021/05/03 02:32:21;;;;;;;7.50;6.78;;;;;;;2.54;74.52;96945.84;5075629;28;20045;-79
2021/05/03 02:34:48;;;;;;;7.75;7.10;;;;;;;2.54;74.76;96948.44;5075888;28;20040;-78
2021/05/03 02:37:14;;;;;;;8.18;7.47;;;;;;;2.52;74.70;96941.75;5075128;28;20151;-78
2021/05/03 02:39:42;;;;;;;7.93;7.32;;;;;;;2.53;74.93;96949.38;5075808;28;20041;-78
2021/05/03 02:42:11;;;;;;;8.18;7.50;;;;;;;2.51;75.14;96951.31;5075172;28;20045;-78
2021/05/03 02:44:39;;;;;;;8.52;7.82;;;;;;;2.52;75.07;96952.94;5075674;28;20032;-78
2021/05/03 02:47:06;;;;;;;8.73;8.02;;;;;;;2.52;75.40;96952.13;5073906;28;20461;-78
2021/05/03 02:49:34;;;;;;;8.43;7.63;;;;;;;2.51;75.48;96956.50;5074180;28;20040;-78
2021/05/03 02:52:01;;;;;;;8.52;7.72;;;;;;;2.52;75.46;96962.47;5075032;28;20045;-77
2021/05/03 02:54:27;;;;;;;8.10;7.45;;;;;;;2.51;75.55;96960.84;5057350;28;20044;-78
2021/05/03 02:56:53;;;;;;;7.32;6.72;;;;;;;2.50;75.56;96956.63;5057093;28;20063;-78
2021/05/03 02:59:20;;;;;;;8.55;7.65;;;;;;;2.50;75.52;96956.63;5073920;28;20424;-78
2021/05/03 03:01:46;;;;;;;7.57;6.97;;;;;;;2.50;75.64;96952.28;5074851;28;20041;-79
2021/05/03 03:04:13;;;;;;;8.20;7.50;;;;;;;2.50;75.75;96961.81;5075167;28;20051;-78
2021/05/03 03:06:39;;;;;;;7.90;7.22;;;;;;;2.48;75.45;96959.41;5074917;28;20401;-78
2021/05/03 03:09:06;;;;;;;7.80;7.20;;;;;;;2.49;75.57;96955.03;5074450;28;20473;-78
2021/05/03 03:11:32;;;;;;;7.68;7.07;;;;;;;2.46;75.58;96952.72;5074929;28;20472;-78
2021/05/03 03:14:01;;;;;;;7.05;6.45;;;;;;;2.44;75.76;96952.91;5074463;28;20056;-78
2021/05/03 03:16:27;;;;;;;7.13;6.53;;;;;;;2.42;75.65;96953.06;5073585;28;20036;-78
2021/05/03 03:18:58;;;;;;;6.93;6.32;;;;;;;2.40;75.57;96954.19;5074805;28;20482;-78
2021/05/03 03:21:25;;;;;;;7.60;6.97;;;;;;;2.38;75.61;96956.91;5073798;28;20045;-78
2021/05/03 03:23:52;;;;;;;7.53;6.93;;;;;;;2.35;75.59;96959.81;5073410;28;20040;-79
2021/05/03 03:26:18;;;;;;;7.70;7.10;;;;;;;2.34;75.73;96965.94;5072583;28;20041;-79
2021/05/03 03:28:45;;;;;;;6.95;6.35;;;;;;;2.32;75.73;96972.25;5075006;28;20033;-79
2021/05/03 03:31:11;;;;;;;7.50;6.80;;;;;;;2.28;75.88;96966.56;5074354;28;20037;-79
2021/05/03 03:33:38;;;;;;;7.22;6.63;;;;;;;2.28;75.87;96971.72;5072827;28;20044;-79
2021/05/03 03:36:08;;;;;;;7.35;6.60;;;;;;;2.28;75.91;96963.16;5074994;28;20482;-79
2021/05/03 03:38:35;;;;;;;7.05;6.55;;;;;;;2.28;75.78;96971.72;5074665;28;20040;-79
2021/05/03 03:41:02;;;;;;;7.38;6.78;;;;;;;2.27;75.87;96972.72;5074616;28;20040;-78
2021/05/03 03:43:28;;;;;;;7.35;6.75;;;;;;;2.26;75.92;96967.69;5072731;28;20043;-78
2021/05/03 03:45:54;;;;;;;7.28;6.68;;;;;;;2.23;75.95;96966.22;5074151;28;20401;-79
2021/05/03 03:48:21;;;;;;;7.07;6.55;;;;;;;2.23;75.92;96968.81;5074139;28;20396;-79
2021/05/03 03:50:47;;;;;;;8.18;7.47;;;;;;;2.22;76.14;96973.13;5073100;28;20382;-79
2021/05/03 03:53:13;;;;;;;7.63;7.03;;;;;;;2.20;76.27;96977.66;5055938;28;20041;-78
2021/05/03 03:55:39;;;;;;;7.30;6.70;;;;;;;2.19;76.27;96978.63;5072628;28;20040;-79
2021/05/03 03:58:06;;;;;;;7.55;6.95;;;;;;;2.18;76.21;96979.63;5072602;28;20040;-80
2021/05/03 04:00:32;;;;;;;7.80;7.15;;;;;;;2.19;76.28;96983.81;5072610;28;20040;-78
2021/05/03 04:03:00;;;;;;;7.07;6.53;;;;;;;2.18;76.35;96982.19;5073396;28;20052;-77
2021/05/03 04:10:55;;;;;;;7.47;6.88;;;;;;;2.20;76.31;96989.78;5072095;28;20044;-77
2021/05/03 04:24:22;;;;;;;6.85;6.25;;;;;;;2.19;76.39;96994.16;5073628;28;20044;-77
2021/05/03 04:26:48;;;;;;;7.80;7.10;;;;;;;2.20;76.28;97005.31;5073471;28;20036;-78
2021/05/03 04:29:15;;;;;;;6.72;6.15;;;;;;;2.19;76.73;97001.91;5073676;28;20048;-78
2021/05/03 04:31:41;;;;;;;7.93;7.22;;;;;;;2.20;76.73;97008.72;5071937;28;20040;-78
2021/05/03 04:34:07;;;;;;;8.20;7.50;;;;;;;2.21;76.87;97000.00;5055568;28;20036;-78
2021/05/03 04:36:33;;;;;;;7.65;7.03;;;;;;;2.26;76.88;97006.50;5072780;28;20044;-78
2021/05/03 04:38:59;;;;;;;7.93;7.32;;;;;;;2.35;77.16;97008.16;5073382;28;20040;-78
2021/05/03 04:41:25;;;;;;;8.20;7.50;;;;;;;2.40;76.93;97014.50;5073172;28;20052;-78
2021/05/03 04:43:52;;;;;;;7.68;7.05;;;;;;;2.50;76.82;97016.19;5071789;28;20048;-78
2021/05/03 04:46:18;;;;;;;7.88;7.10;;;;;;;2.59;76.97;97010.91;5072902;28;20043;-78
2021/05/03 04:48:44;;;;;;;6.97;6.45;;;;;;;2.69;76.70;97015.97;5071083;28;20464;-78
2021/05/03 04:51:11;;;;;;;7.57;6.97;;;;;;;2.71;76.59;97015.81;5072354;28;20044;-78
2021/05/03 04:53:37;;;;;;;7.68;6.97;;;;;;;2.71;76.37;97015.81;5072976;28;20397;-78
2021/05/03 04:56:03;;;;;;;6.82;6.22;;;;;;;2.80;76.77;97013.13;5073537;28;20051;-78
2021/05/03 04:58:30;;;;;;;6.80;6.30;;;;;;;3.17;77.15;97018.91;5072457;28;20051;-78
2021/05/03 05:00:57;;;;;;;8.05;7.35;;;;;;;3.61;77.17;97022.13;5072989;28;20063;-78
2021/05/03 05:03:23;;;;;;;7.57;6.93;;;;;;;4.06;76.85;97025.25;5072244;28;20039;-79
2021/05/03 05:05:51;;;;;;;6.22;5.20;;;;;;;4.56;79.90;97013.84;5071646;28;20044;-78
2021/05/03 05:08:18;;;;;;;7.00;6.40;;;;;;;5.44;79.20;97022.47;5071080;28;20461;-78
2021/05/03 05:10:44;;;;;;;7.00;6.40;;;;;;;5.96;76.33;97024.41;5073077;28;20035;-79
2021/05/03 05:13:11;;;;;;;6.53;6.03;;;;;;;6.33;74.89;97015.00;5073439;28;20041;-77
2021/05/03 05:15:37;;;;;;;6.40;5.82;;;;;;;6.61;73.87;97017.81;5071839;28;20032;-79
2021/05/03 05:18:03;;;;;;;5.90;5.50;;;;;;;6.90;73.14;97024.84;5073039;28;20094;-81
2021/05/03 05:20:29;;;;;;;5.97;5.55;;;;;;;7.17;72.36;97019.97;5071483;28;20481;-78
2021/05/03 05:22:55;;;;;;;5.50;5.10;;;;;;;7.40;71.71;97022.47;5072286;28;20048;-79
2021/05/03 05:25:22;;;;;;;6.47;5.97;;;;;;;7.52;70.30;97020.19;5072477;28;20055;-79
2021/05/03 05:27:48;;;;;;;5.60;5.20;;;;;;;7.58;70.09;97023.84;5073096;28;20039;-79
2021/05/03 05:30:15;;;;;;;5.93;5.50;;;;;;;7.86;70.14;97031.78;5071639;28;20043;-79
2021/05/03 05:32:41;;;;;;;5.47;5.00;;;;;;;8.18;69.64;97033.06;5073917;28;20041;-78
2021/05/03 05:35:11;;;;;;;4.95;4.65;;;;;;;8.43;68.93;97024.88;5077222;28;20053;-78
2021/05/03 05:37:37;;;;;;;5.60;5.20;;;;;;;8.69;68.38;97021.63;5075930;28;20496;-77
2021/05/03 05:40:05;;;;;;;5.72;5.32;;;;;;;8.90;67.29;97028.59;5076674;28;20048;-78
2021/05/03 05:42:32;;;;;;;5.63;5.22;;;;;;;9.09;66.44;97021.84;5077314;28;20032;-77
2021/05/03 05:44:58;;;;;;;5.53;5.03;;;;;;;9.16;66.00;97027.13;5076618;28;20472;-79
2021/05/03 05:47:24;;;;;;;5.10;4.70;;;;;;;9.29;65.49;97024.56;5075391;28;20040;-79
2021/05/03 05:49:51;;;;;;;5.35;4.95;;;;;;;9.45;64.44;97024.22;5075591;28;20040;-80
2021/05/03 05:52:17;;;;;;;5.05;4.65;;;;;;;9.57;64.12;97018.41;5058291;28;20055;-79
2021/05/03 05:54:43;;;;;;;5.55;5.20;;;;;;;9.73;63.41;97023.31;5075837;28;20040;-79
2021/05/03 05:57:09;;;;;;;5.63;5.22;;;;;;;9.83;62.98;97020.31;5059018;28;20036;-80
2021/05/03 05:59:36;;;;;;;6.00;5.60;;;;;;;9.95;62.28;97018.69;5075312;28;20060;-81
2021/05/03 06:02:02;;;;;;;5.40;4.90;;;;;;;10.07;61.47;97016.31;5076909;28;20044;-81
2021/05/03 06:04:28;;;;;;;5.65;5.25;;;;;;;10.32;61.45;97019.16;5076215;28;20128;-81
2021/05/03 06:06:54;;;;;;;4.88;4.47;;;;;;;10.34;60.23;97017.94;5074429;28;20044;-81
2021/05/03 06:09:21;;;;;;;5.30;4.90;;;;;;;10.47;59.98;97011.88;5076140;28;20045;-81
2021/05/03 06:11:47;;;;;;;5.07;4.68;;;;;;;10.48;59.43;97013.53;5058417;28;20039;-81
2021/05/03 06:14:13;;;;;;;5.28;4.88;;;;;;;10.69;59.08;97015.09;5058186;28;20106;-81
2021/05/03 06:16:39;;;;;;;5.40;5.03;;;;;;;10.71;58.28;97007.03;5076566;28;20033;-81
2021/05/03 06:19:06;;;;;;;4.90;4.60;;;;;;;10.57;57.70;97008.88;5058639;28;20449;-81
2021/05/03 06:21:32;;;;;;;4.72;4.43;;;;;;;10.51;57.41;97007.06;5076474;28;20477;-81
2021/05/03 06:23:58;;;;;;;4.95;4.65;;;;;;;10.42;56.79;96993.34;5074928;28;20392;-81
2021/05/03 06:26:25;;;;;;;4.65;4.35;;;;;;;10.36;56.75;96997.59;5058024;28;20053;-77
2021/05/03 06:28:51;;;;;;;4.90;4.60;;;;;;;10.56;56.99;96996.75;5076126;28;20472;-77
2021/05/03 06:31:19;;;;;;;4.65;4.32;;;;;;;10.82;56.42;96995.91;5073749;28;20049;-78
2021/05/03 06:33:46;;;;;;;5.53;5.05;;;;;;;10.92;55.86;96992.88;5076269;28;20047;-78
2021/05/03 06:36:12;;;;;;;4.80;4.45;;;;;;;11.14;55.81;96988.94;5076451;28;20032;-77
2021/05/03 06:38:39;;;;;;;5.60;5.20;;;;;;;10.88;54.59;96983.78;5075366;28;20048;-77
2021/05/03 06:41:05;;;;;;;5.47;5.07;;;;;;;10.58;54.47;96989.47;5075754;28;20385;-77
2021/05/03 06:43:32;;;;;;;5.43;5.05;;;;;;;10.61;54.77;96996.97;5073558;28;20040;-77
2021/05/03 06:45:58;;;;;;;4.70;4.45;;;;;;;10.79;55.20;96993.69;5057777;28;20457;-77
2021/05/03 06:48:25;;;;;;;5.40;4.97;;;;;;;10.75;54.38;96987.22;5075306;28;20481;-77
2021/05/03 06:50:51;;;;;;;5.00;4.70;;;;;;;10.85;54.39;96990.25;5075631;28;20037;-77
2021/05/03 06:53:17;;;;;;;4.47;4.18;;;;;;;10.90;54.16;96990.44;5075860;28;20048;-77
2021/05/03 06:55:46;;;;;;;4.85;4.55;;;;;;;10.97;54.33;96995.66;5075570;28;20051;-77
2021/05/03 06:58:13;;;;;;;5.03;4.72;;;;;;;10.84;54.15;96993.88;5074486;28;20509;-77
2021/05/03 07:00:40;;;;;;;4.97;4.68;;;;;;;10.56;54.03;96991.50;5075590;28;20499;-77
2021/05/03 07:03:11;;;;;;;5.00;4.68;;;;;;;10.52;53.76;96998.16;5076141;28;20036;-76
2021/05/03 07:05:39;;;;;;;5.22;4.72;;;;;;;10.43;54.27;97000.19;5075459;28;20039;-77
2021/05/03 07:08:06;;;;;;;5.40;5.00;;;;;;;10.66;54.63;97007.63;5076207;28;20468;-76
2021/05/03 07:10:33;;;;;;;5.63;5.22;;;;;;;10.90;54.44;97008.00;5074247;28;20024;-77
2021/05/03 07:13:02;;;;;;;5.43;4.93;;;;;;;11.18;54.09;96998.00;5074991;28;20036;-77
2021/05/03 07:15:28;;;;;;;4.93;4.63;;;;;;;11.38;53.73;96992.69;5075475;28;20028;-77
2021/05/03 07:17:55;;;;;;;4.70;4.40;;;;;;;11.44;53.48;96995.47;5075283;28;20033;-77
2021/05/03 07:20:22;;;;;;;5.55;4.75;;;;;;;11.52;53.43;96988.16;5074840;28;20047;-76
2021/05/03 07:22:48;;;;;;;4.85;4.55;;;;;;;11.70;53.23;96984.03;5074796;28;20055;-77
2021/05/03 07:25:15;;;;;;;5.25;4.70;;;;;;;12.01;53.45;96988.53;5075134;28;20041;-77
2021/05/03 07:27:42;;;;;;;5.00;4.60;;;;;;;12.16;52.97;96972.44;5074313;28;20049;-77
2021/05/03 07:30:12;;;;;;;4.53;4.22;;;;;;;12.42;52.06;96973.22;5074734;28;20036;-76
2021/05/03 07:32:38;;;;;;;4.60;4.30;;;;;;;12.76;52.36;96977.94;5074324;28;20500;-76
2021/05/03 07:35:07;;;;;;;4.85;4.45;;;;;;;12.84;51.81;96965.50;5074624;28;20051;-77
2021/05/03 07:37:34;;;;;;;5.18;4.72;;;;;;;12.78;51.76;96960.09;5074771;28;20052;-77
2021/05/03 07:40:01;;;;;;;4.90;4.50;;;;;;;12.89;51.59;96958.59;5074474;28;20388;-77
2021/05/03 07:42:27;;;;;;;4.00;3.70;;;;;;;13.25;51.23;96953.47;5074721;28;20487;-77
2021/05/03 07:44:53;;;;;;;4.32;4.03;;;;;;;13.28;50.69;96953.84;5074405;28;20040;-77
2021/05/03 07:47:20;;;;;;;3.92;3.63;;;;;;;13.16;50.20;96943.25;5074439;28;20405;-77
2021/05/03 07:49:46;;;;;;;4.22;3.92;;;;;;;13.09;50.31;96947.81;5074241;28;20052;-77
2021/05/03 07:52:12;;;;;;;4.07;3.78;;;;;;;13.38;50.52;96946.25;5074593;28;20033;-77
2021/05/03 07:54:38;;;;;;;4.03;3.72;;;;;;;13.69;50.02;96936.50;5074166;28;20048;-77
2021/05/03 07:57:05;;;;;;;3.63;3.42;;;;;;;13.95;49.44;96934.50;5074071;28;20048;-77
2021/05/03 07:59:31;;;;;;;3.60;3.40;;;;;;;14.30;48.79;96926.63;5074380;28;20068;-77
2021/05/03 08:01:58;;;;;;;4.20;4.00;;;;;;;14.16;47.99;96917.31;5056182;28;20044;-78
2021/05/03 08:04:24;;;;;;;3.38;3.17;;;;;;;13.92;47.42;96913.84;5073364;28;20036;-77
2021/05/03 08:06:57;;;;;;;3.65;2.95;;;;;;;14.00;47.25;96926.69;5074226;28;20041;-77
2021/05/03 08:09:25;;;;;;;3.00;2.80;;;;;;;14.48;46.92;96930.94;5074248;28;20075;-78
2021/05/03 08:11:52;;;;;;;2.85;2.65;;;;;;;14.73;45.78;96958.97;5073920;28;20044;-77
2021/05/03 08:14:20;;;;;;;2.85;2.70;;;;;;;14.88;45.26;96977.78;5073874;28;20041;-77
2021/05/03 08:16:50;;;;;;;3.33;3.13;;;;;;;15.09;44.50;96984.28;5074116;28;20033;-77
2021/05/03 08:19:17;;;;;;;3.25;2.83;;;;;;;15.16;44.14;96979.69;5074257;28;20040;-77
2021/05/03 08:21:43;;;;;;;2.90;2.80;;;;;;;15.05;43.67;96977.84;5073538;28;20035;-77
2021/05/03 08:24:14;;;;;;;3.03;2.70;;;;;;;14.67;42.61;96975.75;5073620;28;20413;-78
2021/05/03 08:26:41;;;;;;;2.33;2.15;;;;;;;14.19;43.05;96969.59;5073725;28;20049;-77
2021/05/03 08:29:08;;;;;;;1.70;1.60;;;;;;;13.69;42.76;96975.22;5073719;28;20454;-77
2021/05/03 08:31:34;;;;;;;2.15;2.05;;;;;;;13.19;42.97;96978.91;5072878;28;20055;-77
2021/05/03 08:34:00;;;;;;;2.00;1.90;;;;;;;12.78;42.99;96993.50;5073555;28;20036;-78
2021/05/03 08:36:27;;;;;;;2.20;2.10;;;;;;;12.48;43.15;96993.41;5073918;28;20028;-78
2021/05/03 08:38:53;;;;;;;2.38;2.28;;;;;;;12.28;43.29;97001.44;5073354;28;20380;-78
2021/05/03 08:41:19;;;;;;;2.55;2.05;;;;;;;12.16;43.48;97001.34;5055050;28;20055;-77
2021/05/03 08:43:48;;;;;;;2.53;2.33;;;;;;;12.11;43.64;97006.44;5073546;28;20033;-78
2021/05/03 08:46:26;;;;;;;1.95;1.85;;;;;;;12.08;43.72;96997.16;5073338;28;20040;-77
2021/05/03 08:49:05;;;;;;;2.08;1.98;;;;;;;12.02;43.48;96992.75;5074059;28;20043;-78
2021/05/03 08:51:41;;;;;;;2.28;2.15;;;;;;;11.97;43.29;96993.38;5073397;28;20032;-78
2021/05/03 08:56:34;;;;;;;1.80;1.70;;;;;;;11.60;43.26;96975.81;5073494;28;20037;-77
2021/05/03 08:59:00;;;;;;;2.15;2.00;;;;;;;11.61;43.30;96987.91;5072955;28;20048;-77
2021/05/03 09:01:31;;;;;;;1.85;1.75;;;;;;;11.63;42.61;96983.25;5072426;28;20400;-77
2021/05/03 09:03:59;;;;;;;1.70;1.60;;;;;;;11.58;42.47;96979.44;5073094;28;20068;-78
2021/05/03 09:06:25;;;;;;;1.73;1.63;;;;;;;11.60;42.61;96973.97;5071530;28;20404;-77
2021/05/03 09:09:07;;;;;;;1.80;1.70;;;;;;;11.62;40.41;96958.81;5072894;28;20037;-77
2021/05/03 09:11:35;;;;;;;1.73;1.63;;;;;;;11.60;42.11;96966.09;5073648;28;20044;-77
2021/05/03 09:14:12;;;;;;;1.60;1.50;;;;;;;11.64;41.66;96969.13;5072905;28;20382;-77
2021/05/03 09:16:46;;;;;;;1.83;1.73;;;;;;;11.71;39.76;96947.03;5071901;28;20044;-77
2021/05/03 09:19:14;;;;;;;2.17;1.98;;;;;;;11.71;41.43;96947.03;5073260;28;20037;-77
2021/05/03 09:21:41;;;;;;;1.73;1.63;;;;;;;11.79;41.34;96961.75;5071666;28;20488;-77
2021/05/03 09:26:52;;;;;;;1.77;1.67;;;;;;;11.83;41.06;96951.63;5072953;28;20033;-78
2021/05/03 09:29:28;;;;;;;2.70;1.83;;;;;;;11.76;40.55;96941.94;5073175;28;20039;-77
2021/05/03 09:31:56;;;;;;;1.70;1.60;;;;;;;11.72;40.97;96945.22;5072959;28;20457;-78
2021/05/03 09:34:31;;;;;;;1.85;1.75;;;;;;;11.69;39.94;96941.19;5073175;28;20044;-77
2021/05/03 09:37:16;;;;;;;1.45;1.35;;;;;;;11.65;39.96;96942.63;5072796;28;20127;-77
2021/05/03 09:39:45;;;;;;;1.85;1.73;;;;;;;11.65;40.44;96937.34;5072830;28;20040;-77
2021/05/03 09:42:11;;;;;;;2.15;1.67;;;;;;;11.60;40.27;96946.91;5073086;28;20463;-78
2021/05/03 09:44:37;;;;;;;1.55;1.45;;;;;;;11.55;40.33;96937.84;5073135;28;20465;-77
2021/05/03 09:47:04;;;;;;;1.75;1.30;;;;;;;11.51;40.22;96934.03;5072906;28;20032;-77
2021/05/03 09:49:30;;;;;;;1.77;1.60;;;;;;;11.53;40.24;96936.44;5072551;28;20041;-78
2021/05/03 09:51:59;;;;;;;1.90;1.80;;;;;;;11.58;40.38;96939.25;5073259;28;20040;-77
2021/05/03 09:54:30;;;;;;;1.90;1.80;;;;;;;11.63;40.21;96939.41;5071482;28;20044;-78
2021/05/03 09:57:03;;;;;;;1.95;1.85;;;;;;;11.76;40.04;96935.91;5073040;28;20040;-77
2021/05/03 09:59:36;;;;;;;1.83;1.73;;;;;;;11.83;39.74;96935.84;5072765;28;20075;-77
2021/05/03 10:02:08;;;;;;;1.58;1.50;;;;;;;11.94;39.83;96941.22;5072176;28;20056;-77
2021/05/03 10:04:35;;;;;;;1.70;1.60;;;;;;;12.15;39.97;96934.78;5072237;28;20052;-77
2021/05/03 10:07:03;;;;;;;2.22;1.45;;;;;;;12.30;39.73;96931.81;5072549;28;20036;-78
2021/05/03 10:09:31;;;;;;;1.40;1.40;;;;;;;12.45;39.71;96936.78;5072900;28;20045;-78
2021/05/03 10:11:57;;;;;;;2.50;2.30;;;;;;;12.48;39.37;96948.69;5073376;28;20063;-77
2021/05/03 10:14:24;;;;;;;1.70;1.60;;;;;;;12.42;38.98;96960.06;5072346;28;20063;-77
2021/05/03 10:16:52;;;;;;;1.70;1.60;;;;;;;12.37;39.41;96969.41;5072417;28;20495;-77
2021/05/03 10:19:20;;;;;;;1.38;1.27;;;;;;;12.31;39.26;96975.53;5073020;28;20036;-77
2021/05/03 10:21:48;;;;;;;2.90;1.60;;;;;;;12.22;39.14;96979.47;5075617;28;20048;-77
2021/05/03 10:24:15;;;;;;;1.33;1.30;;;;;;;12.18;39.32;96981.72;5076423;28;20052;-78
2021/05/03 10:26:45;;;;;;;2.17;1.50;;;;;;;12.18;38.84;96973.03;5076240;28;20059;-78
2021/05/03 10:29:41;;;;;;;1.20;1.20;;;;;;;12.16;38.72;96977.69;5075711;28;20036;-77
2021/05/03 10:32:13;;;;;;;1.60;1.50;;;;;;;12.13;38.36;96972.84;5066111;28;20040;-77
2021/05/03 10:34:46;;;;;;;2.13;1.45;;;;;;;12.09;38.08;96966.41;5076096;28;20028;-77
2021/05/03 10:37:39;;;;;;;1.63;1.52;;;;;;;12.10;38.23;96971.47;5075651;28;20033;-77
2021/05/03 10:40:14;;;;;;;1.73;1.60;;;;;;;12.10;37.49;96966.19;5071191;28;20055;-77
2021/05/03 10:43:03;;;;;;;1.50;1.40;;;;;;;12.10;35.95;96950.41;5075766;28;20033;-77
2021/05/03 10:48:33;;;;;;;1.45;1.35;;;;;;;12.12;38.08;96944.97;5076010;28;20048;-77
2021/05/03 10:51:01;;;;;;;1.65;1.50;;;;;;;12.34;38.59;96943.53;5075489;28;20392;-77
2021/05/03 10:53:36;;;;;;;1.27;1.02;;;;;;;12.50;38.04;96938.75;5075479;28;20041;-78
2021/05/03 10:56:06;;;;;;;1.65;1.10;;;;;;;12.60;37.30;96944.31;5074878;28;20055;-77
2021/05/03 10:58:52;;;;;;;2.50;1.25;;;;;;;12.83;41.77;96967.34;5074405;28;20477;-77
2021/05/03 11:01:19;;;;;;;1.05;1.05;;;;;;;13.04;37.56;96941.59;5075145;28;20048;-78
2021/05/03 11:04:11;;;;;;;1.00;1.00;;;;;;;13.07;34.88;96918.25;5075792;28;20044;-78
2021/05/03 11:06:43;;;;;;;1.10;1.10;;;;;;;13.05;36.20;96927.41;5061823;28;20473;-78
2021/05/03 11:09:28;;;;;;;1.10;1.00;;;;;;;13.08;33.39;96911.97;5075573;28;20033;-77
2021/05/03 11:11:55;;;;;;;;;;;;;;;13.01;33.91;96911.25;5075376;28;20039;-77
2021/05/03 11:14:22;;;;;;;1.10;1.10;;;;;;;12.98;36.69;96919.59;5075120;28;20345;-77
2021/05/03 11:17:13;;;;;;;1.02;1.02;;;;;;;13.03;34.02;96914.47;5075384;28;20047;-79
2021/05/03 11:20:11;;;;;;;1.00;0.98;;;;;;;13.09;36.23;96926.75;5074955;28;20396;-78
2021/05/03 11:22:57;;;;;;;1.02;1.00;;;;;;;13.13;35.15;96912.09;5075253;28;20039;-79
2021/05/03 11:25:29;;;;;;;1.17;1.17;;;;;;;13.16;36.21;96916.91;5074236;28;20037;-80
2021/05/03 11:28:08;;;;;;;1.00;1.00;;;;;;;13.24;33.69;96905.28;5074016;28;20041;-79
2021/05/03 11:30:57;;;;;;;2.35;1.13;;;;;;;13.47;35.81;96911.69;5060130;28;20045;-77
2021/05/03 11:33:44;;;;;;;1.20;1.10;;;;;;;14.08;33.37;96900.00;5074887;28;20036;-78
2021/05/03 11:36:21;;;;;;;1.58;1.00;;;;;;;13.98;32.25;96907.66;5073384;28;20060;-77
2021/05/03 11:41:34;;;;;;;1.15;1.10;;;;;;;13.50;32.65;96890.16;5057087;28;20052;-78
2021/05/03 11:46:40;;;;;;;1.20;1.10;;;;;;;13.46;34.34;96897.72;5075232;28;20051;-78
2021/05/03 11:49:09;;;;;;;1.25;1.15;;;;;;;13.77;33.78;96894.00;5074555;28;20461;-79
2021/05/03 11:52:01;;;;;;;1.00;1.00;;;;;;;13.89;32.86;96878.19;5073046;28;20044;-78
2021/05/03 11:54:33;;;;;;;1.10;1.00;;;;;;;13.94;33.94;96891.50;5072360;28;20052;-77
2021/05/03 11:57:05;;;;;;;1.27;1.17;;;;;;;13.90;33.77;96885.09;5074172;28;20044;-77
2021/05/03 11:59:33;;;;;;;1.52;1.20;;;;;;;13.87;33.72;96882.09;5074164;28;20052;-77
2021/05/03 12:02:11;;;;;;;1.00;1.00;;;;;;;13.54;32.47;96875.50;5074293;28;20047;-77
2021/05/03 12:04:45;;;;;;;0.90;0.90;;;;;;;13.60;32.83;96877.22;5074135;28;20046;-77
2021/05/03 12:07:23;;;;;;;1.00;1.00;;;;;;;13.68;32.73;96878.75;5074411;28;20040;-77
2021/05/03 12:10:02;;;;;;;0.95;0.95;;;;;;;13.67;32.95;96882.41;5074481;28;20036;-77
2021/05/03 12:12:33;;;;;;;1.17;1.08;;;;;;;13.56;33.63;96879.50;5074005;28;20366;-77